createdAt,value
2023-04-15T17:01:30.254Z,26.20
2023-04-15T17:03:57.963Z,19.02
2023-04-15T17:06:26.630Z,23.55
2023-04-15T17:08:54.185Z,18.30
2023-04-15T17:11:22.253Z,19.27
2023-04-15T17:13:49.848Z,17.48
2023-04-15T17:16:17.681Z,20.75
2023-04-15T17:18:50.621Z,16.67
2023-04-15T17:21:18.627Z,21.70
2023-04-15T17:23:46.338Z,17.25
2023-04-15T17:26:14.010Z,16.70
2023-04-15T17:28:41.664Z,26.38
2023-04-15T17:31:09.516Z,18.67
2023-04-15T17:34:02.208Z,21.75
2023-04-15T17:36:24.644Z,18.58
2023-04-15T17:38:52.314Z,19.58
2023-04-15T17:41:19.877Z,21.65
2023-04-15T17:43:47.995Z,20.13
2023-04-15T17:46:15.981Z,21.95
2023-04-15T17:48:43.853Z,20.05
2023-04-15T17:51:12.971Z,19.27
2023-04-15T17:53:41.560Z,21.08
2023-04-15T17:56:10.548Z,17.88
2023-04-15T17:58:39.411Z,22.92
2023-04-15T18:01:07.172Z,18.30
2023-04-15T18:03:35.961Z,23.95
2023-04-15T18:06:04.664Z,21.08
2023-04-15T18:08:33.278Z,24.33
2023-04-15T18:11:00.964Z,23.25
2023-04-15T18:13:28.734Z,23.02
2023-04-15T18:15:56.500Z,24.20
2023-04-15T18:18:25.526Z,23.15
2023-04-15T18:20:53.115Z,21.92
2023-04-15T18:23:21.115Z,18.92
2023-04-15T18:25:49.352Z,20.42
2023-04-15T18:28:17.850Z,22.48
2023-04-15T18:30:45.818Z,21.30
2023-04-15T18:33:14.032Z,23.92
2023-04-15T18:35:43.142Z,22.27
2023-04-15T18:38:11.141Z,20.80
2023-04-15T18:40:38.854Z,18.50
2023-04-15T18:43:06.724Z,13.25
2023-04-15T18:45:34.909Z,17.98
2023-04-15T18:48:03.016Z,19.83
2023-04-15T18:50:31.625Z,19.13
2023-04-15T18:52:59.678Z,20.23
2023-04-15T18:55:27.723Z,19.30
2023-04-15T18:57:56.768Z,22.95
2023-04-15T19:00:36.521Z,17.65
2023-04-15T19:03:04.384Z,23.60
2023-04-15T19:05:35.923Z,20.05
2023-04-15T19:08:03.550Z,21.63
2023-04-15T19:10:31.261Z,23.45
2023-04-15T19:12:58.797Z,22.83
2023-04-15T19:15:28.107Z,20.35
2023-04-15T19:17:55.922Z,20.85
2023-04-15T19:20:23.598Z,18.33
2023-04-15T19:22:51.216Z,19.67
2023-04-15T19:25:18.687Z,13.15
2023-04-15T19:27:46.612Z,22.90
2023-04-15T19:30:14.098Z,18.90
2023-04-15T19:32:43.850Z,16.67
2023-04-15T19:35:11.736Z,17.38
2023-04-15T19:37:40.428Z,16.25
2023-04-15T19:40:09.616Z,20.15
2023-04-15T19:42:37.789Z,16.48
2023-04-15T19:45:05.826Z,20.17
2023-04-15T19:47:33.859Z,12.82
2023-04-15T19:50:01.770Z,19.40
2023-04-15T19:52:29.663Z,19.83
2023-04-15T19:54:58.412Z,20.30
2023-04-15T19:57:26.475Z,18.08
2023-04-15T19:59:54.133Z,16.05
2023-04-15T20:02:22.546Z,20.02
2023-04-15T20:04:50.354Z,13.77
2023-04-15T20:07:18.058Z,20.20
2023-04-15T20:09:45.960Z,16.42
2023-04-15T20:12:50.151Z,16.83
2023-04-15T20:15:01.589Z,12.55
2023-04-15T20:17:35.067Z,12.15
2023-04-15T20:20:04.710Z,17.17
2023-04-15T20:22:32.656Z,13.18
2023-04-15T20:25:01.228Z,10.95
2023-04-15T20:27:29.033Z,14.68
2023-04-15T20:29:56.587Z,12.40
2023-04-15T20:32:24.408Z,14.43
2023-04-15T20:34:52.491Z,12.32
2023-04-15T20:37:20.030Z,12.85
2023-04-15T20:39:47.842Z,11.70
2023-04-15T20:42:18.697Z,16.77
2023-04-15T20:44:46.682Z,15.93
2023-04-15T20:47:14.283Z,15.10
2023-04-15T20:49:42.063Z,17.63
2023-04-15T20:52:10.214Z,15.68
2023-04-15T20:54:37.967Z,20.77
2023-04-15T20:57:05.771Z,16.98
2023-04-15T20:59:34.903Z,18.60
2023-04-15T21:02:02.582Z,16.40
2023-04-15T21:04:30.743Z,18.02
2023-04-15T21:06:58.856Z,18.70
2023-04-15T21:09:26.612Z,16.25
2023-04-15T21:12:01.238Z,20.83
2023-04-15T21:14:30.024Z,19.00
2023-04-15T21:16:58.353Z,14.45
2023-04-15T21:19:26.176Z,12.30
2023-04-15T21:21:54.125Z,11.23
2023-04-15T21:24:21.742Z,11.90
2023-04-15T21:26:49.691Z,10.38
2023-04-15T21:29:17.406Z,14.80
2023-04-15T21:31:45.569Z,13.13
2023-04-15T21:34:14.488Z,15.00
2023-04-15T21:36:45.868Z,10.48
2023-04-15T21:39:13.408Z,14.10
2023-04-15T21:41:41.159Z,11.93
2023-04-15T21:44:09.173Z,10.82
2023-04-15T21:46:37.198Z,9.75
2023-04-15T21:49:07.731Z,11.65
2023-04-15T21:51:35.940Z,6.85
2023-04-15T21:54:03.769Z,11.73
2023-04-15T21:56:32.070Z,11.70
2023-04-15T21:58:59.670Z,11.55
2023-04-15T22:01:27.486Z,11.45
2023-04-15T22:03:55.258Z,15.70
2023-04-15T22:06:23.316Z,14.38
2023-04-15T22:08:56.704Z,14.75
2023-04-15T22:11:40.002Z,11.80
2023-04-15T22:14:07.573Z,12.93
2023-04-15T22:16:35.310Z,19.98
2023-04-15T22:19:03.262Z,13.38
2023-04-15T22:21:32.054Z,16.00
2023-04-15T22:24:38.888Z,11.25
2023-04-15T22:26:47.401Z,13.32
2023-04-15T22:29:14.928Z,16.15
2023-04-15T22:31:42.983Z,12.70
2023-04-15T22:34:10.822Z,23.17
2023-04-15T22:36:38.430Z,13.05
2023-04-15T22:39:06.601Z,13.23
2023-04-15T22:41:35.352Z,10.60
2023-04-15T22:44:02.917Z,11.93
2023-04-15T22:46:31.516Z,11.55
2023-04-15T22:48:59.212Z,12.82
2023-04-15T22:51:29.487Z,13.90
2023-04-15T22:53:58.575Z,13.30
2023-04-15T22:56:26.222Z,12.60
2023-04-15T22:58:53.704Z,13.10
2023-04-15T23:01:24.252Z,12.93
2023-04-15T23:03:56.490Z,15.25
2023-04-15T23:06:29.918Z,14.32
2023-04-15T23:08:57.723Z,18.75
2023-04-15T23:11:25.581Z,15.90
